CheckWX is a tool to help pilots better visualize weather data.  It is not intended as a substitute for an official pre-flight weather briefing.

19:16:52 UTC

EGPH METAR
Edinburgh Airport
Edinburgh, United Kingdom
Current

27 mins ago

EGPH 171850Z 13007KT 110V180 CAVOK 10/06 Q0997
Observed
Oct-17 @ 18:50 UTC
Wind
  • 130° at 7 KTS
Visibility
10,000+ meters
Flight Rules
VFR
Cloud Levels
  • Clear skies
Temperature
10°C / 50°F
Dewpoint
C / 43°F
Humidity
76%
Altimeter
29.44" Hg
Pressure
996.92 hPa
Previous

57 mins ago

EGPH 171820Z 14007KT 120V190 CAVOK 10/06 Q0997
Observed
Oct-17 @ 18:20 UTC
Wind
  • 140° at 7 KTS
Visibility
10,000+ meters
Flight Rules
VFR
Cloud Levels
  • Clear skies
Temperature
10°C / 50°F
Dewpoint
C / 43°F
Humidity
76%
Altimeter
29.44" Hg
Pressure
996.92 hPa
Previous

1 hour ago

EGPH 171750Z 13008KT CAVOK 12/07 Q0997
Observed
Oct-17 @ 17:50 UTC
Wind
  • 130° at 8 KTS
Visibility
10,000+ meters
Flight Rules
VFR
Cloud Levels
  • Clear skies
Temperature
12°C / 54°F
Dewpoint
C / 45°F
Humidity
72%
Altimeter
29.44" Hg
Pressure
996.92 hPa